Gainesville, AL

8:50 PM CDT on July 31, 2014 (GMT -0500)
Meridian Naval Air Station (KNMM) Elev 318 ft | 32.55 °N, 88.56 °W | Change Station

Current weather conditions updated 54 minutes ago

Mostly Cloudy
Mostly Cloudy
77 °F
Feels Like 77 °F
N
4
Wind Variable Wind from North

Tomorrow is forecast to be Warmer than today.

Today
High -- | Low -- °F
--% Chance of Precip.
Yesterday
High -- | Low -- °F
Precip. -- in
6:05 AM 7:51 PM
Waxing Crescent, 22% visible
Pressure 30.06 in
Visibility 10.0 miles
Clouds Mostly Cloudy 19000 ft
Dew Point 63 °F
Humidity 62%
Rainfall 0.00 in
Snow Depth Not available.
UV 0 out of 12
Pollen 4.00 out of 12
Air Quality Not available.
Flu Activity Not available.
METAR KNMM 010056Z 36003KT 10SM BKN190 25/17 A3003 RMK AO2 SLP178 T02500172 $

More Conditions Fewer Conditions

Pressure 30.06 in
Visibility 10.0 miles
Clouds Mostly Cloudy 19000 ft
Dew Point 63 °F
Humidity 62%
Rainfall 0.00 in
Snow Depth Not available.
UV 0 out of 12
Pollen 4.00 out of 12
Air Quality Not available.
Flu Activity Not available.
METAR KNMM 010056Z 36003KT 10SM BKN190 25/17 A3003 RMK AO2 SLP178 T02500172 $

More Conditions Fewer Conditions

10-Day Weather Forecast

Almanac

Astronomy

Jul. 31, 2014 Rise Set
Actual Time 6:05 AM CDT 7:51 PM CDT
Civil Twilight 5:38 AM CDT 8:18 PM CDT
Nautical Twilight 5:06 AM CDT 8:51 PM CDT
Astronomical Twilight 4:31 AM CDT 9:25 PM CDT
Moon 10:15 AM CDT (7/31) 10:23 PM CDT (7/31)
Length of Visible Light 14h 40m
Length of Day
13h 46m
Tomorrow will be 1m 30s shorter.
Waxing Crescent, 22% of the Moon is Illuminated
Today
Waxing Crescent
Aug 3
First Quarter
Aug 10
Full
Aug 17
Last Quarter
Aug 25
New

Today's Extremes

State Highs State Lows

Community

WunderPhotos

Upload Photos

1,739,490 photos uploaded!

Nearby

Snow Depth

Station Depth Elevation
No new snow has been reported.

Earthquake Activity

City Distance Mag. Time & Date
No recent earthquake activity has been reported nearby.
Minimum magnitude displayed is 2.5.

Coastal Water Temperatures

Place Temperature
No Stations Reporting

Nearby Weather Stations

Station Location Temp. Heat Index Dew Point Humidity Wind Precip. Elev Updated Type
HCN HEFLIN LOCK GAINESVILLE 2 NE AL , Gainesville, AL 73 °F 71 °F - - North  at  - 0.00 in / hr 107 ft 7:40 PM CDT MADIS
APRSWXNET Aliceville AL , Panola, AL 80 °F 78 °F - - SW  at  0 mph 0.00 in / hr 144 ft 5:14 PM CDT MADIS
MesoWest LIVINGSTON-UWA , Livingston, AL 79 °F 80 °F 62 °F 56% West  at  1 mph 0.00 in / hr 144 ft 7:00 PM CDT MADIS
MesoWest DEE RIVER RANCH , Aliceville, AL 77 °F 79 °F 63 °F 64% NNE  at  2 mph 0.00 in / hr 160 ft 7:00 PM CDT MADIS

Show More Stations Show Fewer Stations